Time;durP1;ratioP1;P1;durP2;ratioP2;P2;SDS_P1;SDS_P2;PMS_P1;PMS_P2;Temp;Humidity;BMP_temperature;BMP_pressure;BME280_temperature;BME280_humidity;BME280_pressure;Samples;Min_cycle;Max_cycle;Signal;HPM_P1;HPM_P2
2021/05/15 00:00:55;;;;;;;0.30;0.30;;;;;;;11.35;73.97;98436.53;5094546;28;20039;-86
2021/05/15 00:03:21;;;;;;;0.50;0.50;;;;;;;11.27;74.61;98431.72;5094084;28;20092;-87
2021/05/15 00:05:46;;;;;;;0.65;0.65;;;;;;;11.24;74.90;98427.06;5094094;28;20020;-85
2021/05/15 00:08:13;;;;;;;0.20;0.20;;;;;;;11.20;75.12;98418.91;5093845;28;20035;-86
2021/05/15 00:10:38;;;;;;;0.80;0.80;;;;;;;11.18;74.81;98426.84;5094690;28;20024;-84
2021/05/15 00:13:04;;;;;;;0.20;0.20;;;;;;;10.88;74.93;98386.78;5094184;28;20051;-84
2021/05/15 00:15:30;;;;;;;1.02;0.70;;;;;;;10.80;74.87;98390.22;5094462;28;20028;-86
2021/05/15 00:17:56;;;;;;;0.20;0.20;;;;;;;11.06;75.70;98430.44;5093765;28;20165;-83
2021/05/15 00:20:22;;;;;;;9.05;2.28;;;;;;;10.84;74.65;98404.72;5093605;28;20464;-83
2021/05/15 00:22:48;;;;;;;0.50;0.50;;;;;;;11.13;74.70;98432.19;5093473;28;20028;-82
2021/05/15 00:25:16;;;;;;;0.20;0.20;;;;;;;11.14;74.34;98434.50;5093355;28;20089;-82
2021/05/15 00:27:42;;;;;;;0.20;0.20;;;;;;;10.98;74.77;98413.28;5093333;28;20066;-86
2021/05/15 00:30:10;;;;;;;0.32;0.32;;;;;;;11.18;74.49;98429.63;5093353;28;20047;-85
2021/05/15 00:32:36;;;;;;;0.20;0.20;;;;;;;11.10;75.05;98410.94;5093352;28;20028;-84
2021/05/15 00:35:03;;;;;;;0.63;0.63;;;;;;;11.12;74.60;98420.34;5092335;28;20044;-82
2021/05/15 00:37:28;;;;;;;0.22;0.22;;;;;;;11.01;74.66;98411.63;5093017;28;20089;-83
2021/05/15 00:39:54;;;;;;;0.20;0.20;;;;;;;10.95;75.11;98432.78;5093262;28;20035;-85
2021/05/15 00:42:19;;;;;;;0.98;0.98;;;;;;;11.00;75.73;98448.78;5093245;28;20101;-84
2021/05/15 00:44:45;;;;;;;0.95;0.95;;;;;;;11.00;75.66;98451.56;5093058;28;20028;-84
2021/05/15 00:47:22;;;;;;;0.20;0.20;;;;;;;10.80;75.33;98423.38;5092850;28;20115;-87
2021/05/15 00:49:49;;;;;;;0.28;0.28;;;;;;;10.70;75.57;98397.66;5093352;28;20408;-85
2021/05/15 00:52:15;;;;;;;0.40;0.40;;;;;;;10.91;75.20;98440.41;5093259;28;20562;-85
2021/05/15 00:54:42;;;;;;;0.20;0.20;;;;;;;10.87;75.52;98420.41;5092857;28;20071;-86
2021/05/15 00:57:10;;;;;;;0.52;0.52;;;;;;;10.73;75.96;98412.59;5093418;28;20180;-83
2021/05/15 00:59:37;;;;;;;;;;;;;;;10.84;76.39;98430.38;5093234;28;20070;-87
2021/05/15 01:02:04;;;;;;;0.20;0.20;;;;;;;10.42;76.61;98418.69;5092821;28;19908;-85
2021/05/15 01:04:29;;;;;;;0.30;0.30;;;;;;;10.40;76.91;98398.25;5093266;28;20031;-87
2021/05/15 01:06:55;;;;;;;1.55;0.77;;;;;;;10.62;76.06;98432.25;5092843;28;20407;-86
2021/05/15 01:09:21;;;;;;;0.10;0.10;;;;;;;10.70;75.71;98432.81;5092698;28;20102;-86
2021/05/15 01:11:46;;;;;;;0.20;0.20;;;;;;;10.71;75.23;98428.84;5092896;28;20028;-86
2021/05/15 01:14:12;;;;;;;0.30;0.30;;;;;;;10.79;75.55;98446.75;5093147;28;20039;-85
2021/05/15 01:16:38;;;;;;;0.25;0.25;;;;;;;10.67;75.21;98430.94;5092453;28;20098;-87
2021/05/15 01:19:04;;;;;;;0.20;0.20;;;;;;;10.45;75.95;98394.91;5092716;28;20024;-86
2021/05/15 01:21:31;;;;;;;0.20;0.20;;;;;;;10.65;76.05;98425.06;5092405;28;20024;-83
2021/05/15 01:23:56;;;;;;;0.20;0.20;;;;;;;10.66;76.40;98432.16;5092809;28;20043;-87
2021/05/15 01:26:29;;;;;;;0.40;0.40;;;;;;;10.59;76.02;98422.09;5092619;28;20032;-82
2021/05/15 01:28:57;;;;;;;0.20;0.20;;;;;;;10.50;75.84;98414.47;5092260;28;20028;-86
2021/05/15 01:31:24;;;;;;;0.20;0.20;;;;;;;10.46;76.22;98418.56;5093422;28;20419;-86
2021/05/15 01:33:49;;;;;;;0.20;0.20;;;;;;;10.26;77.35;98429.81;5092127;28;20056;-87
2021/05/15 01:36:15;;;;;;;0.20;0.20;;;;;;;10.03;78.65;98436.41;5092433;28;20461;-87
2021/05/15 01:38:41;;;;;;;0.20;0.20;;;;;;;9.76;79.47;98416.72;5092396;28;20032;-86
2021/05/15 01:41:12;;;;;;;0.90;0.90;;;;;;;9.72;80.54;98435.31;5092663;28;20020;-88
2021/05/15 01:43:38;;;;;;;0.20;0.20;;;;;;;9.49;81.90;98439.13;5092305;28;20046;-88
2021/05/15 01:46:05;;;;;;;0.20;0.20;;;;;;;9.11;82.50;98418.84;5091838;28;20020;-90
2021/05/15 01:48:31;;;;;;;0.20;0.20;;;;;;;8.56;82.62;98343.50;5092497;28;20040;-90
2021/05/15 01:51:05;;;;;;;0.20;0.20;;;;;;;8.71;84.70;98413.56;5092295;28;20090;-89
2021/05/15 01:53:33;;;;;;;0.30;0.30;;;;;;;8.89;85.29;98435.94;5092962;28;20028;-89
2021/05/15 01:56:00;;;;;;;6.55;0.73;;;;;;;8.97;85.27;98433.78;5092640;28;20020;-88
2021/05/15 01:58:26;;;;;;;0.45;0.45;;;;;;;8.79;85.12;98392.13;5092164;28;20097;-86
2021/05/15 02:00:52;;;;;;;0.20;0.20;;;;;;;9.17;84.91;98445.47;5091988;28;20035;-85
2021/05/15 02:03:21;;;;;;;0.20;0.20;;;;;;;9.24;84.99;98442.53;5092006;28;20123;-86
2021/05/15 02:05:51;;;;;;;0.20;0.20;;;;;;;9.40;84.72;98445.25;5092583;28;20020;-86
2021/05/15 02:08:17;;;;;;;2.80;1.05;;;;;;;9.61;82.57;98452.19;5092540;28;20032;-87
2021/05/15 02:10:42;;;;;;;0.63;0.63;;;;;;;9.45;83.68;98438.44;5092049;28;20035;-86
2021/05/15 02:13:08;;;;;;;0.55;0.55;;;;;;;9.33;83.06;98409.63;5091976;28;20035;-86
2021/05/15 02:15:33;;;;;;;0.20;0.20;;;;;;;9.34;82.81;98419.41;5092166;28;20036;-85
2021/05/15 02:18:00;;;;;;;0.45;0.45;;;;;;;9.51;81.78;98430.41;5092389;28;20036;-86
2021/05/15 02:20:26;;;;;;;0.30;0.30;;;;;;;9.49;81.57;98441.88;5091892;28;20032;-85
2021/05/15 02:22:51;;;;;;;0.20;0.20;;;;;;;9.30;81.78;98424.25;5092022;28;20132;-87
2021/05/15 02:25:18;;;;;;;0.20;0.20;;;;;;;9.20;82.70;98435.56;5092614;28;20442;-86
2021/05/15 02:27:43;;;;;;;0.75;0.75;;;;;;;9.17;83.14;98408.84;5091746;28;20036;-83
2021/05/15 02:30:10;;;;;;;0.20;0.20;;;;;;;9.27;83.10;98416.09;5092472;28;20082;-86
2021/05/15 02:32:36;;;;;;;0.30;0.30;;;;;;;9.22;83.91;98405.59;5091924;28;20039;-88
2021/05/15 02:35:01;;;;;;;0.20;0.20;;;;;;;9.45;83.22;98437.66;5091327;28;20109;-86
2021/05/15 02:37:27;;;;;;;2.13;0.68;;;;;;;9.46;83.60;98448.28;5091664;28;20020;-85
2021/05/15 02:39:52;;;;;;;0.30;0.30;;;;;;;9.14;83.94;98404.22;5091662;28;20036;-87
2021/05/15 02:42:18;;;;;;;3.65;0.88;;;;;;;9.21;83.51;98404.03;5091879;28;20059;-84
2021/05/15 02:44:44;;;;;;;0.77;0.77;;;;;;;9.19;83.75;98400.94;5091757;28;20032;-85
2021/05/15 02:47:09;;;;;;;0.20;0.20;;;;;;;9.45;83.21;98424.66;5091575;28;20027;-85
2021/05/15 02:49:35;;;;;;;0.30;0.30;;;;;;;9.60;83.26;98447.88;5091720;28;20032;-83
2021/05/15 02:52:00;;;;;;;0.20;0.20;;;;;;;9.20;82.91;98394.22;5091849;28;20028;-85
2021/05/15 02:54:26;;;;;;;0.20;0.20;;;;;;;9.07;83.34;98415.44;5091594;28;20476;-85
2021/05/15 02:56:52;;;;;;;0.20;0.20;;;;;;;9.03;84.24;98453.34;5091888;28;20028;-88
2021/05/15 02:59:17;;;;;;;2.08;1.30;;;;;;;8.64;83.41;98443.25;5094159;28;20032;-88
2021/05/15 03:01:43;;;;;;;0.20;0.20;;;;;;;8.25;85.00;98416.63;5095708;28;20028;-89
2021/05/15 03:04:08;;;;;;;0.20;0.20;;;;;;;8.41;85.59;98466.97;5094896;28;20093;-88
2021/05/15 03:06:34;;;;;;;0.20;0.20;;;;;;;8.26;86.96;98462.19;5095234;28;20122;-89
2021/05/15 03:08:59;;;;;;;0.28;0.28;;;;;;;8.21;88.29;98454.44;5094940;28;20028;-89
2021/05/15 03:11:25;;;;;;;0.20;0.20;;;;;;;8.16;90.16;98448.22;5094830;28;20475;-87
2021/05/15 03:13:51;;;;;;;0.75;0.75;;;;;;;8.31;88.91;98469.97;5094891;28;20579;-90
2021/05/15 03:16:16;;;;;;;0.20;0.20;;;;;;;7.88;88.34;98415.84;5095001;28;20024;-90
2021/05/15 03:18:42;;;;;;;0.20;0.20;;;;;;;8.20;87.80;98452.91;5095538;28;20453;-89
2021/05/15 03:21:07;;;;;;;0.20;0.20;;;;;;;8.25;88.40;98439.41;5094730;28;20032;-88
2021/05/15 03:23:33;;;;;;;0.20;0.20;;;;;;;8.51;87.75;98465.19;5094802;28;20043;-88
2021/05/15 03:25:58;;;;;;;0.20;0.20;;;;;;;8.34;88.66;98466.34;5094557;28;20502;-88
2021/05/15 03:28:24;;;;;;;1.38;1.35;;;;;;;8.52;87.80;98478.53;5094455;28;20471;-87
2021/05/15 03:30:50;;;;;;;0.30;0.30;;;;;;;8.35;87.30;98427.41;5094521;28;20032;-87
2021/05/15 03:33:16;;;;;;;0.20;0.20;;;;;;;8.62;86.46;98473.22;5094318;28;20135;-84
2021/05/15 03:35:41;;;;;;;0.57;0.57;;;;;;;8.80;86.27;98451.53;5094751;28;20044;-89
2021/05/15 03:38:09;;;;;;;0.20;0.20;;;;;;;9.12;85.08;98465.28;5094466;28;20433;-86
2021/05/15 03:40:34;;;;;;;0.20;0.20;;;;;;;9.34;85.01;98449.00;5094922;28;20059;-85
2021/05/15 03:43:00;;;;;;;0.63;0.63;;;;;;;10.23;81.60;98466.59;5094428;28;20020;-86
2021/05/15 03:45:26;;;;;;;0.45;0.45;;;;;;;10.69;77.24;98422.97;5094548;28;20032;-87
2021/05/15 03:47:51;;;;;;;0.20;0.20;;;;;;;11.02;76.22;98472.03;5094367;28;20082;-87
2021/05/15 03:50:17;;;;;;;0.43;0.43;;;;;;;11.13;75.95;98470.88;5095037;28;20036;-88
2021/05/15 03:52:42;;;;;;;0.20;0.20;;;;;;;11.00;75.64;98454.31;5094119;28;20077;-85
2021/05/15 03:55:08;;;;;;;0.65;0.63;;;;;;;10.72;76.03;98444.19;5094244;28;20043;-84
2021/05/15 03:57:34;;;;;;;0.22;0.22;;;;;;;10.99;76.50;98480.41;5094799;28;20048;-87
2021/05/15 03:59:59;;;;;;;0.30;0.30;;;;;;;10.80;76.29;98434.44;5094848;28;20125;-87
2021/05/15 04:02:26;;;;;;;0.20;0.20;;;;;;;10.61;77.30;98425.19;5094985;28;20024;-88
2021/05/15 04:04:52;;;;;;;0.45;0.45;;;;;;;10.39;77.87;98407.75;5094702;28;20036;-88
2021/05/15 04:07:18;;;;;;;0.20;0.20;;;;;;;10.50;78.26;98413.69;5093823;28;20024;-86
2021/05/15 04:09:44;;;;;;;0.20;0.20;;;;;;;10.80;78.36;98409.56;5094106;28;20038;-86
2021/05/15 04:12:13;;;;;;;0.20;0.20;;;;;;;11.22;76.83;98457.91;5094284;28;20024;-87
2021/05/15 04:17:17;;;;;;;0.20;0.20;;;;;;;11.35;76.01;98400.56;5095227;28;20101;-88
2021/05/15 04:19:42;;;;;;;0.25;0.25;;;;;;;12.04;74.28;98446.75;5093869;28;20036;-87
2021/05/15 04:22:08;;;;;;;0.40;0.40;;;;;;;12.77;72.40;98472.06;5093688;28;20028;-87
2021/05/15 04:24:34;;;;;;;0.20;0.20;;;;;;;14.88;64.40;98447.25;5093460;28;20031;-88
2021/05/15 04:27:03;;;;;;;0.10;0.10;;;;;;;16.90;57.67;98422.63;5094503;28;20028;-88
2021/05/15 04:29:30;;;;;;;0.10;0.10;;;;;;;18.08;53.35;98413.66;5093585;28;20510;-87
2021/05/15 04:31:57;;;;;;;0.10;0.10;;;;;;;17.70;53.68;98443.50;5093419;28;20024;-88
2021/05/15 04:34:24;;;;;;;0.10;0.10;;;;;;;19.21;51.01;98453.94;5093551;28;20052;-87
2021/05/15 04:36:50;;;;;;;0.10;0.10;;;;;;;21.48;44.89;98451.91;5093489;28;20028;-85
2021/05/15 04:39:16;;;;;;;0.47;0.47;;;;;;;23.02;41.95;98450.66;5093373;28;20035;-87
2021/05/15 04:41:42;;;;;;;0.05;0.05;;;;;;;24.89;38.69;98455.63;5093162;28;20039;-86
2021/05/15 04:44:07;;;;;;;0.10;0.10;;;;;;;26.10;33.97;98439.59;5093035;28;20111;-86
2021/05/15 04:46:33;;;;;;;0.03;0.03;;;;;;;27.27;32.35;98445.19;5093299;28;20097;-86
2021/05/15 04:48:58;;;;;;;0.00;0.00;;;;;;;28.43;30.45;98460.13;5093121;28;20085;-87
2021/05/15 04:51:24;;;;;;;0.10;0.10;;;;;;;28.87;28.90;98452.28;5092965;28;20085;-86
2021/05/15 04:53:49;;;;;;;0.00;0.00;;;;;;;29.94;27.07;98456.47;5093179;28;20028;-86
2021/05/15 04:56:15;;;;;;;0.20;0.20;;;;;;;30.38;26.39;98444.66;5093675;28;20055;-85
2021/05/15 04:58:45;;;;;;;0.10;0.05;;;;;;;31.55;24.64;98463.31;5095149;28;20020;-87
2021/05/15 05:01:10;;;;;;;0.32;0.32;;;;;;;30.04;25.84;98460.22;5101815;28;20038;-86
2021/05/15 05:03:36;;;;;;;0.30;0.30;;;;;;;29.28;27.30;98436.88;5093581;28;20020;-81
2021/05/15 05:06:02;;;;;;;0.25;0.25;;;;;;;28.68;28.44;98444.06;5092488;28;20028;-79
2021/05/15 05:08:27;;;;;;;0.10;0.10;;;;;;;28.69;28.74;98459.81;5093337;28;20020;-79
2021/05/15 05:10:53;;;;;;;0.55;0.43;;;;;;;28.73;27.71;98448.81;5092782;28;20036;-83
2021/05/15 05:13:19;;;;;;;0.25;0.25;;;;;;;29.63;26.74;98438.69;5092354;28;20471;-83
2021/05/15 05:15:48;;;;;;;0.00;0.00;;;;;;;30.70;24.44;98436.84;5092667;28;20031;-80
2021/05/15 05:18:13;;;;;;;0.17;0.17;;;;;;;31.71;23.50;98409.66;5093369;28;20476;-80
2021/05/15 05:20:39;;;;;;;0.00;0.00;;;;;;;32.25;22.77;98419.06;5091880;28;20043;-82
2021/05/15 05:23:05;;;;;;;0.30;0.28;;;;;;;32.05;22.87;98434.56;5092436;28;20024;-80
2021/05/15 05:25:31;;;;;;;0.15;0.15;;;;;;;31.54;23.37;98436.06;5091877;28;20118;-80
2021/05/15 05:27:57;;;;;;;0.22;0.22;;;;;;;31.95;23.29;98434.47;5092069;28;20056;-83
2021/05/15 05:30:23;;;;;;;0.00;0.00;;;;;;;32.33;22.17;98377.56;5092270;28;20116;-82
2021/05/15 05:32:50;;;;;;;0.00;0.00;;;;;;;33.27;21.37;98431.38;5093389;28;20031;-82
2021/05/15 05:35:16;;;;;;;0.10;0.10;;;;;;;33.39;21.45;98425.81;5091722;28;20144;-82
2021/05/15 05:37:42;;;;;;;0.00;0.00;;;;;;;33.47;20.22;98414.94;5091919;28;20039;-81
2021/05/15 05:40:10;;;;;;;0.17;0.17;;;;;;;32.88;20.30;98389.66;5092026;28;20028;-81
2021/05/15 05:42:37;;;;;;;0.28;0.28;;;;;;;31.96;22.15;98393.13;5091968;28;20092;-81
2021/05/15 05:45:07;;;;;;;0.10;0.10;;;;;;;29.56;24.48;98378.91;5091928;28;20056;-80
2021/05/15 05:47:33;;;;;;;0.10;0.10;;;;;;;29.65;25.56;98410.41;5092387;28;20055;-81
2021/05/15 05:49:59;;;;;;;0.00;0.00;;;;;;;30.60;24.89;98398.91;5091928;28;20071;-81
2021/05/15 05:52:24;;;;;;;0.38;0.38;;;;;;;31.20;23.65;98382.59;5091998;28;20020;-82
2021/05/15 05:54:50;;;;;;;0.05;0.05;;;;;;;32.09;23.17;98417.72;5092053;28;20032;-81
2021/05/15 05:57:16;;;;;;;0.10;0.10;;;;;;;32.44;22.91;98416.28;5091605;28;20028;-86
2021/05/15 05:59:41;;;;;;;0.30;0.30;;;;;;;31.89;22.59;98362.53;5091600;28;20039;-80
2021/05/15 06:02:07;;;;;;;0.00;0.00;;;;;;;33.46;21.48;98390.50;5091532;28;20024;-79
2021/05/15 06:04:33;;;;;;;0.20;0.20;;;;;;;34.13;20.61;98376.13;5092544;28;20076;-80
2021/05/15 06:07:03;;;;;;;0.65;0.65;;;;;;;32.93;21.27;98386.50;5091628;28;20042;-79
2021/05/15 06:09:29;;;;;;;0.13;0.13;;;;;;;32.70;21.58;98394.75;5092015;28;20030;-79
2021/05/15 06:11:54;;;;;;;0.10;0.10;;;;;;;33.19;21.95;98384.19;5091570;28;20488;-80
2021/05/15 06:14:20;;;;;;;0.00;0.00;;;;;;;32.39;21.79;98376.50;5091047;28;20035;-78
2021/05/15 06:16:45;;;;;;;0.30;0.30;;;;;;;32.41;22.46;98365.25;5090492;28;20115;-78
2021/05/15 06:19:11;;;;;;;0.65;0.45;;;;;;;32.02;21.65;98361.41;5090637;28;20131;-77
2021/05/15 06:21:36;;;;;;;0.00;0.00;;;;;;;31.76;21.96;98377.22;5090296;28;20031;-77
2021/05/15 06:24:02;;;;;;;0.03;0.03;;;;;;;32.27;21.32;98373.44;5090540;28;20032;-77
2021/05/15 06:26:27;;;;;;;4.03;0.20;;;;;;;33.19;20.59;98384.19;5091240;28;20066;-78
2021/05/15 06:28:53;;;;;;;0.10;0.10;;;;;;;32.94;20.94;98353.69;5091489;28;20073;-76
2021/05/15 06:31:18;;;;;;;0.93;0.52;;;;;;;32.69;21.02;98379.69;5091516;28;20484;-78
2021/05/15 06:33:44;;;;;;;0.00;0.00;;;;;;;30.38;22.51;98371.28;5092838;28;20032;-77
2021/05/15 06:36:09;;;;;;;0.20;0.20;;;;;;;29.30;25.30;98377.25;5094961;28;20047;-79
2021/05/15 06:38:35;;;;;;;0.00;0.00;;;;;;;30.18;24.58;98363.81;5095533;28;20119;-80
2021/05/15 06:41:00;;;;;;;0.20;0.20;;;;;;;30.57;24.10;98365.81;5095106;28;20111;-78
2021/05/15 06:43:26;;;;;;;0.68;0.43;;;;;;;30.21;24.27;98354.84;5095383;28;20035;-79
2021/05/15 06:45:51;;;;;;;4.30;1.48;;;;;;;29.06;25.74;98355.88;5094861;28;20118;-77
2021/05/15 06:48:17;;;;;;;0.13;0.13;;;;;;;27.23;29.22;98371.03;5095193;28;20024;-77
2021/05/15 06:50:42;;;;;;;0.00;0.00;;;;;;;26.56;29.98;98353.75;5095317;28;20036;-77
2021/05/15 06:53:08;;;;;;;0.22;0.15;;;;;;;25.46;32.25;98360.66;5096565;28;20028;-79
2021/05/15 06:55:34;;;;;;;0.32;0.32;;;;;;;24.45;35.31;98356.19;5094723;28;20024;-78
2021/05/15 06:58:04;;;;;;;0.10;0.10;;;;;;;24.04;35.47;98384.78;5094452;28;20024;-79
2021/05/15 07:00:31;;;;;;;0.17;0.17;;;;;;;23.34;36.41;98340.88;5095097;28;20032;-78
2021/05/15 07:02:56;;;;;;;0.15;0.15;;;;;;;23.44;36.71;98351.25;5094728;28;20089;-78
2021/05/15 07:05:22;;;;;;;3.15;0.25;;;;;;;23.51;37.07;98361.94;5094626;28;20036;-78
2021/05/15 07:07:47;;;;;;;0.95;0.40;;;;;;;23.53;36.83;98353.72;5094646;28;20023;-78
2021/05/15 07:10:13;;;;;;;0.30;0.30;;;;;;;23.39;36.99;98351.31;5094563;28;20480;-80
2021/05/15 07:12:38;;;;;;;0.52;0.52;;;;;;;23.22;36.18;98340.25;5094955;28;20445;-77
2021/05/15 07:15:07;;;;;;;0.63;0.60;;;;;;;22.77;37.66;98359.72;5094426;28;20536;-77
2021/05/15 07:17:33;;;;;;;0.10;0.10;;;;;;;22.38;37.72;98309.41;5094673;28;20024;-78
2021/05/15 07:19:59;;;;;;;0.50;0.50;;;;;;;22.43;37.65;98350.81;5094260;28;20040;-77
2021/05/15 07:22:25;;;;;;;0.10;0.10;;;;;;;22.49;38.36;98347.94;5094243;28;20556;-78
2021/05/15 07:24:55;;;;;;;0.65;0.57;;;;;;;22.18;38.59;98374.59;5094028;28;20110;-76
2021/05/15 07:27:22;;;;;;;0.20;0.20;;;;;;;21.83;38.94;98339.50;5094694;28;20554;-78
2021/05/15 07:29:49;;;;;;;0.70;0.70;;;;;;;22.41;41.17;98359.03;5094595;28;20028;-76
2021/05/15 07:32:15;;;;;;;0.10;0.10;;;;;;;21.57;39.36;98363.72;5094196;28;20482;-76
2021/05/15 07:34:41;;;;;;;0.32;0.17;;;;;;;22.14;39.45;98363.59;5094071;28;20051;-79
2021/05/15 07:37:09;;;;;;;0.20;0.20;;;;;;;22.40;38.69;98346.25;5093943;28;20060;-77
2021/05/15 07:39:35;;;;;;;3.65;1.48;;;;;;;22.45;38.43;98320.09;5093994;28;20032;-77
2021/05/15 07:42:01;;;;;;;0.32;0.32;;;;;;;23.38;37.10;98370.31;5094091;28;20445;-78
2021/05/15 07:44:27;;;;;;;2.30;0.45;;;;;;;23.16;36.97;98350.81;5093576;28;20081;-77
2021/05/15 07:46:52;;;;;;;4.32;0.52;;;;;;;23.41;36.67;98362.81;5093972;28;20031;-77
2021/05/15 07:49:18;;;;;;;1.02;0.77;;;;;;;23.85;35.50;98350.19;5094102;28;20483;-79
2021/05/15 07:51:44;;;;;;;0.52;0.45;;;;;;;24.84;33.69;98358.28;5093939;28;20032;-78
2021/05/15 07:54:10;;;;;;;0.32;0.32;;;;;;;24.22;34.62;98374.78;5093625;28;20119;-76
2021/05/15 07:56:35;;;;;;;0.30;0.30;;;;;;;23.48;35.76;98363.00;5093503;28;20557;-78
2021/05/15 07:59:01;;;;;;;0.63;0.35;;;;;;;23.61;36.20;98370.03;5093670;28;20034;-77
2021/05/15 08:01:26;;;;;;;0.25;0.25;;;;;;;23.35;36.31;98337.50;5093174;28;20031;-76
2021/05/15 08:03:52;;;;;;;0.63;0.60;;;;;;;23.00;37.82;98352.56;5093677;28;20038;-79
2021/05/15 08:06:18;;;;;;;2.25;0.63;;;;;;;23.85;36.09;98334.03;5093770;28;20498;-80
2021/05/15 08:08:43;;;;;;;0.10;0.10;;;;;;;24.92;34.90;98350.72;5093304;28;20032;-80
2021/05/15 08:11:11;;;;;;;1.25;0.63;;;;;;;25.14;34.11;98338.94;5094239;28;20031;-79
2021/05/15 08:13:36;;;;;;;0.20;0.20;;;;;;;24.81;33.98;98336.78;5093556;28;20055;-81
2021/05/15 08:16:02;;;;;;;0.20;0.20;;;;;;;25.32;32.74;98337.28;5093565;28;20028;-81
2021/05/15 08:18:27;;;;;;;0.35;0.35;;;;;;;25.34;33.35;98300.00;5093376;28;20066;-79
2021/05/15 08:20:53;;;;;;;4.38;0.73;;;;;;;25.60;33.66;98324.66;5093269;28;20047;-79
2021/05/15 08:23:19;;;;;;;0.80;0.55;;;;;;;25.15;32.73;98314.25;5092997;28;20131;-80
2021/05/15 08:25:44;;;;;;;1.55;0.35;;;;;;;25.00;33.83;98266.78;5093226;28;20027;-79
2021/05/15 08:28:14;;;;;;;0.52;0.20;;;;;;;25.48;32.29;98315.63;5093311;28;20032;-80
2021/05/15 08:30:41;;;;;;;0.20;0.20;;;;;;;25.00;34.14;98277.34;5093642;28;20484;-79
2021/05/15 08:33:07;;;;;;;0.43;0.43;;;;;;;23.97;35.67;98311.28;5092757;28;20116;-78
2021/05/15 08:35:34;;;;;;;1.33;0.68;;;;;;;22.89;38.26;98301.97;5092933;28;20165;-77
2021/05/15 08:38:01;;;;;;;1.20;1.10;;;;;;;22.53;39.02;98270.34;5092893;28;20033;-79
2021/05/15 08:40:27;;;;;;;4.20;0.85;;;;;;;23.05;38.53;98297.41;5093126;28;20088;-79
2021/05/15 08:42:54;;;;;;;0.28;0.28;;;;;;;23.12;37.97;98305.28;5092865;28;20170;-78
2021/05/15 08:45:20;;;;;;;0.00;0.00;;;;;;;23.12;35.24;98296.81;5093217;28;20032;-79
2021/05/15 08:47:46;;;;;;;0.50;0.38;;;;;;;23.06;37.34;98294.06;5092862;28;20031;-79
2021/05/15 08:50:17;;;;;;;0.10;0.10;;;;;;;23.34;35.76;98270.38;5092754;28;20024;-80
2021/05/15 08:52:46;;;;;;;0.28;0.28;;;;;;;23.97;36.43;98269.69;5093261;28;20449;-76
2021/05/15 08:55:18;;;;;;;0.38;0.38;;;;;;;23.25;35.74;98231.31;5092156;28;20533;-78
2021/05/15 08:57:44;;;;;;;0.10;0.10;;;;;;;23.91;36.41;98281.09;5092105;28;20039;-77
2021/05/15 09:00:23;;;;;;;0.40;0.40;;;;;;;24.47;34.49;98285.03;5092757;28;20036;-79
2021/05/15 09:02:51;;;;;;;0.65;0.45;;;;;;;24.33;34.00;98268.06;5092670;28;20035;-78
2021/05/15 09:05:19;;;;;;;9.95;0.45;;;;;;;23.37;35.59;98284.19;5092410;28;20474;-77
2021/05/15 09:07:49;;;;;;;0.63;0.63;;;;;;;22.39;37.46;98291.22;5092456;28;20407;-82
2021/05/15 09:10:19;;;;;;;0.40;0.40;;;;;;;22.39;37.73;98277.16;5092667;28;20035;-78
2021/05/15 09:12:44;;;;;;;0.30;0.30;;;;;;;22.27;39.08;98275.72;5092376;28;20042;-79
2021/05/15 09:15:11;;;;;;;0.10;0.10;;;;;;;22.92;38.13;98283.22;5092471;28;20110;-79
2021/05/15 09:17:50;;;;;;;0.95;0.50;;;;;;;22.84;38.00;98231.63;5092418;28;20127;-81
2021/05/15 09:20:42;;;;;;;0.10;0.10;;;;;;;23.18;36.62;98274.19;5092134;28;20028;-77
2021/05/15 09:23:20;;;;;;;0.10;0.10;;;;;;;23.50;36.48;98246.88;5089339;28;20036;-79
2021/05/15 09:25:57;;;;;;;0.13;0.13;;;;;;;23.52;36.47;98247.84;5092121;28;20042;-78
2021/05/15 09:28:41;;;;;;;0.73;0.70;;;;;;;23.99;35.64;98283.28;5092272;28;20032;-78
2021/05/15 09:31:19;;;;;;;1.35;1.15;;;;;;;24.03;35.01;98242.16;5092238;28;20023;-80
2021/05/15 09:33:56;;;;;;;0.30;0.30;;;;;;;24.03;36.42;98249.84;5091963;28;20075;-79
2021/05/15 09:36:23;;;;;;;0.30;0.20;;;;;;;24.24;34.74;98239.47;5092206;28;20028;-80
2021/05/15 09:39:17;;;;;;;0.13;0.13;;;;;;;23.43;36.48;98281.28;5092524;28;20122;-78
2021/05/15 09:41:51;;;;;;;0.10;0.10;;;;;;;22.96;38.12;98290.13;5091857;28;20036;-79
2021/05/15 09:44:29;;;;;;;0.20;0.20;;;;;;;22.62;39.07;98284.06;5091845;28;20112;-78
2021/05/15 09:46:56;;;;;;;;;;;;;;;22.08;40.42;98286.13;5092516;28;20032;-80
2021/05/15 09:49:24;;;;;;;0.20;0.20;;;;;;;21.63;41.44;98266.78;5091754;28;19907;-79
2021/05/15 09:51:55;;;;;;;1.23;1.13;;;;;;;20.85;42.64;98286.88;5091875;28;20036;-78
2021/05/15 09:54:25;;;;;;;1.35;0.60;;;;;;;20.51;44.37;98246.13;5091862;28;20034;-78
2021/05/15 09:57:11;;;;;;;0.40;0.40;;;;;;;20.63;42.54;98244.81;5091836;28;20119;-78
2021/05/15 09:59:42;;;;;;;0.52;0.40;;;;;;;20.89;42.23;98289.41;5092025;28;20024;-79
2021/05/15 10:02:13;;;;;;;0.50;0.50;;;;;;;20.66;42.43;98257.84;5091829;28;20503;-78
2021/05/15 10:04:47;;;;;;;0.25;0.13;;;;;;;20.76;42.40;98245.03;5091885;28;20050;-79
2021/05/15 10:07:29;;;;;;;1.20;0.98;;;;;;;21.16;46.92;98284.97;5093007;28;20491;-79
2021/05/15 10:09:59;;;;;;;0.10;0.10;;;;;;;20.81;52.64;98249.84;5096237;28;20119;-77
2021/05/15 10:12:26;;;;;;;1.25;0.47;;;;;;;20.99;50.21;98282.97;5096035;28;20070;-79
2021/05/15 10:14:52;;;;;;;0.10;0.10;;;;;;;20.84;50.89;98274.09;5096002;28;20128;-79
2021/05/15 10:17:21;;;;;;;0.28;0.28;;;;;;;21.26;49.65;98255.28;5095889;28;20035;-78
2021/05/15 10:19:47;;;;;;;0.40;0.40;;;;;;;21.43;48.36;98196.91;5095646;28;20435;-79
2021/05/15 10:22:12;;;;;;;0.32;0.32;;;;;;;22.18;45.87;98231.06;5095771;28;20024;-79
2021/05/15 10:24:45;;;;;;;0.20;0.20;;;;;;;22.86;43.11;98241.03;5095674;28;20024;-80
2021/05/15 10:27:13;;;;;;;0.73;0.40;;;;;;;23.45;43.57;98259.69;5095969;28;20400;-79
2021/05/15 10:29:50;;;;;;;0.10;0.10;;;;;;;23.08;46.68;98226.69;5095427;28;20089;-79
2021/05/15 10:32:21;;;;;;;0.45;0.45;;;;;;;22.24;48.16;98220.50;5095544;28;20032;-78
2021/05/15 10:35:09;;;;;;;0.47;0.47;;;;;;;22.40;48.27;98256.16;5095276;28;20454;-79
2021/05/15 10:37:39;;;;;;;0.30;0.30;;;;;;;22.49;46.55;98219.19;5094742;28;20064;-79
2021/05/15 10:40:21;;;;;;;0.20;0.20;;;;;;;22.81;48.36;98263.66;5095563;28;20085;-80
2021/05/15 10:43:03;;;;;;;0.10;0.10;;;;;;;22.62;46.84;98255.91;5095387;28;20024;-79
2021/05/15 10:45:36;;;;;;;0.10;0.10;;;;;;;22.69;43.20;98252.50;5095231;28;20124;-79
2021/05/15 10:48:22;;;;;;;0.20;0.20;;;;;;;22.64;42.53;98207.50;5095190;28;20024;-79
2021/05/15 10:51:06;;;;;;;0.10;0.10;;;;;;;22.76;43.53;98228.63;5095396;28;20031;-81
2021/05/15 10:53:33;;;;;;;0.10;0.10;;;;;;;22.75;44.32;98226.34;5095769;28;20028;-79
2021/05/15 10:56:17;;;;;;;0.10;0.10;;;;;;;21.77;48.09;98200.97;5095153;28;20085;-79
2021/05/15 10:58:47;;;;;;;0.55;0.55;;;;;;;21.70;47.35;98212.03;5094944;28;20059;-80
2021/05/15 11:02:02;;;;;;;0.28;0.28;;;;;;;21.79;48.14;98234.97;5095137;28;20498;-80
2021/05/15 11:04:33;;;;;;;0.47;0.47;;;;;;;21.92;46.88;98201.34;5077262;28;20032;-80
2021/05/15 11:07:32;;;;;;;0.30;0.20;;;;;;;22.08;45.86;98198.91;5095067;28;20484;-81
2021/05/15 11:10:04;;;;;;;0.10;0.10;;;;;;;22.01;46.94;98179.81;5094940;28;20533;-84
2021/05/15 11:12:38;;;;;;;1.25;0.80;;;;;;;22.11;47.83;98183.81;5095186;28;20038;-80
2021/05/15 11:15:07;;;;;;;1.10;0.75;;;;;;;22.42;50.42;98224.66;5094637;28;20024;-80
2021/05/15 11:17:32;;;;;;;0.65;0.65;;;;;;;22.68;49.77;98213.59;5094685;28;20127;-79
2021/05/15 11:20:11;;;;;;;0.40;0.40;;;;;;;22.14;50.59;98196.81;5093501;28;20123;-79
2021/05/15 11:22:44;;;;;;;3.40;0.20;;;;;;;22.28;49.55;98157.00;5095421;28;20481;-80
2021/05/15 11:25:12;;;;;;;0.52;0.52;;;;;;;22.84;47.05;98178.09;5094650;28;20527;-80
2021/05/15 11:27:45;;;;;;;0.30;0.30;;;;;;;22.44;46.55;98172.16;5094382;28;20042;-79
2021/05/15 11:30:15;;;;;;;0.10;0.10;;;;;;;22.23;46.68;98193.66;5094547;28;20027;-81
2021/05/15 11:33:03;;;;;;;0.73;0.73;;;;;;;22.46;45.60;98183.66;5094395;28;20402;-79
2021/05/15 11:35:50;;;;;;;0.13;0.13;;;;;;;22.87;45.43;98179.84;5094092;28;20036;-80
2021/05/15 11:38:20;;;;;;;0.57;0.50;;;;;;;23.30;43.22;98154.34;5093635;28;20101;-81
2021/05/15 11:40:46;;;;;;;0.35;0.35;;;;;;;23.61;42.11;98121.81;5094498;28;20258;-79
2021/05/15 11:43:35;;;;;;;0.20;0.20;;;;;;;24.08;41.83;98158.66;5094213;28;20531;-77